sensor_id;sensor_type;location;lat;lon;timestamp;P1;durP1;ratioP1;P2;durP2;ratioP2
43042;SDS011;28667;50.758;6.096;2022-07-29T00:00:59;3.28;;;1.50;;
43042;SDS011;28667;50.758;6.096;2022-07-29T00:03:26;6.05;;;1.40;;
43042;SDS011;28667;50.758;6.096;2022-07-29T00:05:52;2.83;;;1.30;;
43042;SDS011;28667;50.758;6.096;2022-07-29T00:08:19;1.63;;;1.25;;
43042;SDS011;28667;50.758;6.096;2022-07-29T00:10:45;3.65;;;1.42;;
43042;SDS011;28667;50.758;6.096;2022-07-29T00:13:11;6.15;;;1.95;;
43042;SDS011;28667;50.758;6.096;2022-07-29T00:15:38;3.40;;;1.65;;
43042;SDS011;28667;50.758;6.096;2022-07-29T00:18:04;3.08;;;1.67;;
43042;SDS011;28667;50.758;6.096;2022-07-29T00:20:30;2.15;;;1.48;;
43042;SDS011;28667;50.758;6.096;2022-07-29T00:22:56;4.45;;;2.10;;
43042;SDS011;28667;50.758;6.096;2022-07-29T00:25:23;4.53;;;1.88;;
43042;SDS011;28667;50.758;6.096;2022-07-29T00:27:49;2.50;;;1.63;;
43042;SDS011;28667;50.758;6.096;2022-07-29T00:30:15;1.95;;;1.40;;
43042;SDS011;28667;50.758;6.096;2022-07-29T00:32:41;2.63;;;1.23;;
43042;SDS011;28667;50.758;6.096;2022-07-29T00:35:07;3.13;;;1.20;;
43042;SDS011;28667;50.758;6.096;2022-07-29T00:37:53;3.58;;;1.40;;
43042;SDS011;28667;50.758;6.096;2022-07-29T00:40:19;5.05;;;1.40;;
43042;SDS011;28667;50.758;6.096;2022-07-29T00:42:46;2.47;;;1.25;;
43042;SDS011;28667;50.758;6.096;2022-07-29T00:45:15;3.10;;;1.40;;
43042;SDS011;28667;50.758;6.096;2022-07-29T00:47:42;3.65;;;1.45;;
43042;SDS011;28667;50.758;6.096;2022-07-29T00:50:09;3.65;;;1.63;;
43042;SDS011;28667;50.758;6.096;2022-07-29T00:52:37;3.30;;;1.45;;
43042;SDS011;28667;50.758;6.096;2022-07-29T00:55:05;3.95;;;1.63;;
43042;SDS011;28667;50.758;6.096;2022-07-29T00:57:34;3.83;;;1.70;;
43042;SDS011;28667;50.758;6.096;2022-07-29T01:00:05;4.82;;;1.52;;
43042;SDS011;28667;50.758;6.096;2022-07-29T01:02:34;3.72;;;1.58;;
43042;SDS011;28667;50.758;6.096;2022-07-29T01:05:00;3.38;;;1.67;;
43042;SDS011;28667;50.758;6.096;2022-07-29T01:07:28;3.38;;;1.50;;
43042;SDS011;28667;50.758;6.096;2022-07-29T01:09:58;1.90;;;1.38;;
43042;SDS011;28667;50.758;6.096;2022-07-29T01:12:25;1.30;;;1.20;;
43042;SDS011;28667;50.758;6.096;2022-07-29T01:14:54;4.13;;;1.30;;
43042;SDS011;28667;50.758;6.096;2022-07-29T01:30:46;3.13;;;1.17;;
43042;SDS011;28667;50.758;6.096;2022-07-29T01:33:15;3.60;;;1.17;;
43042;SDS011;28667;50.758;6.096;2022-07-29T01:36:01;5.03;;;1.48;;
43042;SDS011;28667;50.758;6.096;2022-07-29T01:38:36;3.75;;;1.40;;
43042;SDS011;28667;50.758;6.096;2022-07-29T01:41:15;1.67;;;1.10;;
43042;SDS011;28667;50.758;6.096;2022-07-29T01:43:50;4.13;;;1.23;;
43042;SDS011;28667;50.758;6.096;2022-07-29T01:46:25;3.88;;;1.50;;
43042;SDS011;28667;50.758;6.096;2022-07-29T01:49:05;2.97;;;1.40;;
43042;SDS011;28667;50.758;6.096;2022-07-29T01:51:43;3.67;;;1.40;;
43042;SDS011;28667;50.758;6.096;2022-07-29T01:54:30;3.83;;;1.30;;
43042;SDS011;28667;50.758;6.096;2022-07-29T01:57:00;5.20;;;1.55;;
43042;SDS011;28667;50.758;6.096;2022-07-29T01:59:29;3.03;;;1.20;;
43042;SDS011;28667;50.758;6.096;2022-07-29T02:01:57;3.30;;;1.50;;
43042;SDS011;28667;50.758;6.096;2022-07-29T02:04:24;4.28;;;1.50;;
43042;SDS011;28667;50.758;6.096;2022-07-29T02:06:52;5.35;;;1.30;;
43042;SDS011;28667;50.758;6.096;2022-07-29T02:09:20;2.72;;;1.30;;
43042;SDS011;28667;50.758;6.096;2022-07-29T02:11:48;2.60;;;1.30;;
43042;SDS011;28667;50.758;6.096;2022-07-29T02:14:17;3.65;;;1.70;;
43042;SDS011;28667;50.758;6.096;2022-07-29T02:16:46;3.50;;;1.58;;
43042;SDS011;28667;50.758;6.096;2022-07-29T02:19:16;3.80;;;1.38;;
43042;SDS011;28667;50.758;6.096;2022-07-29T02:21:44;5.10;;;1.52;;
43042;SDS011;28667;50.758;6.096;2022-07-29T02:24:12;3.33;;;1.52;;
43042;SDS011;28667;50.758;6.096;2022-07-29T02:26:39;5.60;;;1.55;;
43042;SDS011;28667;50.758;6.096;2022-07-29T02:29:08;4.60;;;2.00;;
43042;SDS011;28667;50.758;6.096;2022-07-29T02:31:37;6.90;;;1.83;;
43042;SDS011;28667;50.758;6.096;2022-07-29T02:34:05;5.57;;;1.95;;
43042;SDS011;28667;50.758;6.096;2022-07-29T02:36:33;3.50;;;1.70;;
43042;SDS011;28667;50.758;6.096;2022-07-29T02:39:00;2.88;;;1.58;;
43042;SDS011;28667;50.758;6.096;2022-07-29T02:44:10;6.30;;;2.10;;
43042;SDS011;28667;50.758;6.096;2022-07-29T02:46:49;3.25;;;1.55;;
43042;SDS011;28667;50.758;6.096;2022-07-29T02:49:36;2.72;;;1.40;;
43042;SDS011;28667;50.758;6.096;2022-07-29T02:52:08;6.10;;;1.27;;
43042;SDS011;28667;50.758;6.096;2022-07-29T02:57:24;6.68;;;1.83;;
43042;SDS011;28667;50.758;6.096;2022-07-29T02:59:57;2.47;;;1.48;;
43042;SDS011;28667;50.758;6.096;2022-07-29T03:02:29;2.28;;;1.55;;
43042;SDS011;28667;50.758;6.096;2022-07-29T03:04:59;2.35;;;1.50;;
43042;SDS011;28667;50.758;6.096;2022-07-29T03:07:27;5.55;;;1.75;;
43042;SDS011;28667;50.758;6.096;2022-07-29T03:09:54;3.65;;;1.90;;
43042;SDS011;28667;50.758;6.096;2022-07-29T03:12:22;6.15;;;1.60;;
43042;SDS011;28667;50.758;6.096;2022-07-29T03:14:48;4.18;;;1.40;;
43042;SDS011;28667;50.758;6.096;2022-07-29T03:17:15;3.10;;;1.30;;
43042;SDS011;28667;50.758;6.096;2022-07-29T03:19:41;3.08;;;1.17;;
43042;SDS011;28667;50.758;6.096;2022-07-29T03:22:08;6.68;;;1.83;;
43042;SDS011;28667;50.758;6.096;2022-07-29T03:24:35;6.03;;;1.60;;
43042;SDS011;28667;50.758;6.096;2022-07-29T03:27:03;6.90;;;1.67;;
43042;SDS011;28667;50.758;6.096;2022-07-29T03:29:29;4.38;;;1.90;;
43042;SDS011;28667;50.758;6.096;2022-07-29T03:31:56;7.97;;;1.77;;
43042;SDS011;28667;50.758;6.096;2022-07-29T03:34:22;13.77;;;1.80;;
43042;SDS011;28667;50.758;6.096;2022-07-29T03:36:48;4.00;;;1.63;;
43042;SDS011;28667;50.758;6.096;2022-07-29T03:39:17;4.40;;;2.22;;
43042;SDS011;28667;50.758;6.096;2022-07-29T03:41:47;4.10;;;1.75;;
43042;SDS011;28667;50.758;6.096;2022-07-29T03:44:15;3.90;;;1.83;;
43042;SDS011;28667;50.758;6.096;2022-07-29T03:46:43;5.72;;;1.58;;
43042;SDS011;28667;50.758;6.096;2022-07-29T03:49:11;6.63;;;1.88;;
43042;SDS011;28667;50.758;6.096;2022-07-29T03:51:40;3.72;;;1.70;;
43042;SDS011;28667;50.758;6.096;2022-07-29T03:54:06;3.40;;;1.45;;
43042;SDS011;28667;50.758;6.096;2022-07-29T03:56:34;4.78;;;1.60;;
43042;SDS011;28667;50.758;6.096;2022-07-29T03:59:16;5.43;;;1.80;;
43042;SDS011;28667;50.758;6.096;2022-07-29T04:01:44;6.55;;;1.75;;
43042;SDS011;28667;50.758;6.096;2022-07-29T04:04:11;2.42;;;1.17;;
43042;SDS011;28667;50.758;6.096;2022-07-29T04:06:42;3.45;;;1.67;;
43042;SDS011;28667;50.758;6.096;2022-07-29T04:09:10;3.08;;;1.42;;
43042;SDS011;28667;50.758;6.096;2022-07-29T04:11:40;3.90;;;1.60;;
43042;SDS011;28667;50.758;6.096;2022-07-29T04:14:07;6.70;;;1.80;;
43042;SDS011;28667;50.758;6.096;2022-07-29T04:16:33;3.90;;;1.58;;
43042;SDS011;28667;50.758;6.096;2022-07-29T04:18:59;3.60;;;1.38;;
43042;SDS011;28667;50.758;6.096;2022-07-29T04:21:25;4.95;;;1.70;;
43042;SDS011;28667;50.758;6.096;2022-07-29T04:23:51;5.68;;;1.60;;
43042;SDS011;28667;50.758;6.096;2022-07-29T04:26:17;2.33;;;1.40;;
43042;SDS011;28667;50.758;6.096;2022-07-29T04:28:45;1.92;;;1.58;;
43042;SDS011;28667;50.758;6.096;2022-07-29T04:31:12;2.60;;;1.42;;
43042;SDS011;28667;50.758;6.096;2022-07-29T04:33:39;2.72;;;1.40;;
43042;SDS011;28667;50.758;6.096;2022-07-29T04:36:05;2.85;;;1.38;;
43042;SDS011;28667;50.758;6.096;2022-07-29T04:38:31;4.05;;;1.33;;
43042;SDS011;28667;50.758;6.096;2022-07-29T04:40:57;5.30;;;1.65;;
43042;SDS011;28667;50.758;6.096;2022-07-29T04:43:23;3.00;;;1.58;;
43042;SDS011;28667;50.758;6.096;2022-07-29T04:45:49;4.97;;;1.50;;
43042;SDS011;28667;50.758;6.096;2022-07-29T04:48:15;3.78;;;1.20;;
43042;SDS011;28667;50.758;6.096;2022-07-29T04:50:41;2.35;;;1.55;;
43042;SDS011;28667;50.758;6.096;2022-07-29T04:53:07;6.70;;;1.80;;
43042;SDS011;28667;50.758;6.096;2022-07-29T04:55:34;5.60;;;1.50;;
43042;SDS011;28667;50.758;6.096;2022-07-29T04:58:00;2.65;;;2.00;;
43042;SDS011;28667;50.758;6.096;2022-07-29T05:00:26;2.17;;;1.30;;
43042;SDS011;28667;50.758;6.096;2022-07-29T05:02:52;2.83;;;1.65;;
43042;SDS011;28667;50.758;6.096;2022-07-29T05:05:18;2.20;;;1.65;;
43042;SDS011;28667;50.758;6.096;2022-07-29T05:07:47;3.03;;;1.60;;
43042;SDS011;28667;50.758;6.096;2022-07-29T05:10:13;1.15;;;0.93;;
43042;SDS011;28667;50.758;6.096;2022-07-29T05:12:39;3.25;;;1.60;;
43042;SDS011;28667;50.758;6.096;2022-07-29T05:15:05;2.90;;;1.38;;
43042;SDS011;28667;50.758;6.096;2022-07-29T05:17:32;2.78;;;1.40;;
43042;SDS011;28667;50.758;6.096;2022-07-29T05:19:58;4.22;;;1.63;;
43042;SDS011;28667;50.758;6.096;2022-07-29T05:22:25;2.90;;;1.77;;
43042;SDS011;28667;50.758;6.096;2022-07-29T05:24:51;2.17;;;1.40;;
43042;SDS011;28667;50.758;6.096;2022-07-29T05:27:17;3.20;;;1.35;;
43042;SDS011;28667;50.758;6.096;2022-07-29T05:29:43;2.95;;;1.52;;
43042;SDS011;28667;50.758;6.096;2022-07-29T05:32:09;2.92;;;1.60;;
43042;SDS011;28667;50.758;6.096;2022-07-29T05:34:35;1.60;;;1.20;;
43042;SDS011;28667;50.758;6.096;2022-07-29T05:37:01;5.25;;;1.52;;
43042;SDS011;28667;50.758;6.096;2022-07-29T05:39:27;2.80;;;1.33;;
43042;SDS011;28667;50.758;6.096;2022-07-29T05:41:53;4.75;;;1.50;;
43042;SDS011;28667;50.758;6.096;2022-07-29T05:44:19;3.10;;;1.35;;
43042;SDS011;28667;50.758;6.096;2022-07-29T05:46:45;5.13;;;1.63;;
43042;SDS011;28667;50.758;6.096;2022-07-29T05:49:12;3.97;;;1.50;;
43042;SDS011;28667;50.758;6.096;2022-07-29T05:51:38;5.03;;;1.60;;
43042;SDS011;28667;50.758;6.096;2022-07-29T05:54:04;3.10;;;2.15;;
43042;SDS011;28667;50.758;6.096;2022-07-29T05:56:30;2.65;;;1.40;;
43042;SDS011;28667;50.758;6.096;2022-07-29T05:58:57;1.50;;;1.40;;
43042;SDS011;28667;50.758;6.096;2022-07-29T06:01:23;2.53;;;1.40;;
43042;SDS011;28667;50.758;6.096;2022-07-29T06:03:49;3.22;;;1.58;;
43042;SDS011;28667;50.758;6.096;2022-07-29T06:06:15;4.03;;;1.67;;
43042;SDS011;28667;50.758;6.096;2022-07-29T06:08:42;2.72;;;1.65;;
43042;SDS011;28667;50.758;6.096;2022-07-29T06:11:08;8.23;;;1.90;;
43042;SDS011;28667;50.758;6.096;2022-07-29T06:13:34;4.25;;;1.92;;
43042;SDS011;28667;50.758;6.096;2022-07-29T06:16:00;5.75;;;2.05;;
43042;SDS011;28667;50.758;6.096;2022-07-29T06:18:26;5.15;;;1.92;;
43042;SDS011;28667;50.758;6.096;2022-07-29T06:20:52;4.00;;;1.70;;
43042;SDS011;28667;50.758;6.096;2022-07-29T06:23:19;2.45;;;1.60;;
43042;SDS011;28667;50.758;6.096;2022-07-29T06:25:46;3.45;;;1.52;;
43042;SDS011;28667;50.758;6.096;2022-07-29T06:28:12;3.47;;;1.60;;
43042;SDS011;28667;50.758;6.096;2022-07-29T06:30:38;7.28;;;1.50;;
43042;SDS011;28667;50.758;6.096;2022-07-29T06:33:05;3.60;;;1.33;;
43042;SDS011;28667;50.758;6.096;2022-07-29T06:35:34;4.82;;;2.42;;
43042;SDS011;28667;50.758;6.096;2022-07-29T06:38:02;3.38;;;1.83;;
43042;SDS011;28667;50.758;6.096;2022-07-29T06:40:29;7.57;;;2.20;;
43042;SDS011;28667;50.758;6.096;2022-07-29T06:43:13;7.82;;;2.13;;
43042;SDS011;28667;50.758;6.096;2022-07-29T06:45:40;4.07;;;2.30;;
43042;SDS011;28667;50.758;6.096;2022-07-29T06:48:06;4.50;;;1.80;;
43042;SDS011;28667;50.758;6.096;2022-07-29T06:50:32;2.28;;;1.60;;
43042;SDS011;28667;50.758;6.096;2022-07-29T06:52:58;3.35;;;1.42;;
43042;SDS011;28667;50.758;6.096;2022-07-29T06:55:25;3.40;;;1.73;;
43042;SDS011;28667;50.758;6.096;2022-07-29T06:57:51;5.68;;;2.08;;
43042;SDS011;28667;50.758;6.096;2022-07-29T07:00:17;3.33;;;2.03;;
43042;SDS011;28667;50.758;6.096;2022-07-29T07:02:43;2.63;;;1.50;;
43042;SDS011;28667;50.758;6.096;2022-07-29T07:05:09;2.03;;;1.50;;
43042;SDS011;28667;50.758;6.096;2022-07-29T07:07:36;5.05;;;2.00;;
43042;SDS011;28667;50.758;6.096;2022-07-29T07:10:02;5.68;;;1.92;;
43042;SDS011;28667;50.758;6.096;2022-07-29T07:12:29;3.80;;;2.30;;
43042;SDS011;28667;50.758;6.096;2022-07-29T07:14:55;7.50;;;2.45;;
43042;SDS011;28667;50.758;6.096;2022-07-29T07:17:21;7.78;;;2.22;;
43042;SDS011;28667;50.758;6.096;2022-07-29T07:19:47;4.68;;;2.75;;
43042;SDS011;28667;50.758;6.096;2022-07-29T07:22:13;6.60;;;3.28;;
43042;SDS011;28667;50.758;6.096;2022-07-29T07:24:39;5.43;;;2.47;;
43042;SDS011;28667;50.758;6.096;2022-07-29T07:27:05;3.42;;;2.17;;
43042;SDS011;28667;50.758;6.096;2022-07-29T07:29:31;7.50;;;2.53;;
43042;SDS011;28667;50.758;6.096;2022-07-29T07:31:58;4.40;;;2.15;;
43042;SDS011;28667;50.758;6.096;2022-07-29T07:34:24;7.72;;;2.72;;
43042;SDS011;28667;50.758;6.096;2022-07-29T07:36:50;4.93;;;2.33;;
43042;SDS011;28667;50.758;6.096;2022-07-29T07:39:16;6.32;;;3.13;;
43042;SDS011;28667;50.758;6.096;2022-07-29T07:41:42;5.68;;;2.60;;
43042;SDS011;28667;50.758;6.096;2022-07-29T07:44:08;6.82;;;2.65;;
43042;SDS011;28667;50.758;6.096;2022-07-29T07:46:35;7.75;;;2.80;;
43042;SDS011;28667;50.758;6.096;2022-07-29T07:49:01;6.72;;;2.60;;
43042;SDS011;28667;50.758;6.096;2022-07-29T07:51:27;3.85;;;2.40;;
43042;SDS011;28667;50.758;6.096;2022-07-29T07:53:53;4.00;;;2.17;;
43042;SDS011;28667;50.758;6.096;2022-07-29T07:56:19;7.43;;;2.50;;
43042;SDS011;28667;50.758;6.096;2022-07-29T07:58:45;5.05;;;2.80;;
43042;SDS011;28667;50.758;6.096;2022-07-29T08:01:11;8.63;;;2.33;;
43042;SDS011;28667;50.758;6.096;2022-07-29T08:03:37;5.07;;;3.00;;
43042;SDS011;28667;50.758;6.096;2022-07-29T08:06:04;8.07;;;2.60;;
43042;SDS011;28667;50.758;6.096;2022-07-29T08:08:31;6.10;;;2.58;;
43042;SDS011;28667;50.758;6.096;2022-07-29T08:10:57;7.82;;;2.83;;
43042;SDS011;28667;50.758;6.096;2022-07-29T08:13:26;4.78;;;2.53;;
43042;SDS011;28667;50.758;6.096;2022-07-29T08:15:56;8.05;;;2.42;;
43042;SDS011;28667;50.758;6.096;2022-07-29T08:18:37;4.25;;;1.95;;
43042;SDS011;28667;50.758;6.096;2022-07-29T08:21:04;5.70;;;1.65;;
43042;SDS011;28667;50.758;6.096;2022-07-29T08:23:30;3.83;;;1.75;;
43042;SDS011;28667;50.758;6.096;2022-07-29T08:26:07;6.28;;;2.03;;
43042;SDS011;28667;50.758;6.096;2022-07-29T08:28:39;4.32;;;1.83;;
43042;SDS011;28667;50.758;6.096;2022-07-29T08:31:07;3.63;;;2.05;;
43042;SDS011;28667;50.758;6.096;2022-07-29T08:33:33;3.97;;;2.30;;
43042;SDS011;28667;50.758;6.096;2022-07-29T08:35:59;6.40;;;2.53;;
43042;SDS011;28667;50.758;6.096;2022-07-29T08:38:25;3.78;;;2.60;;
43042;SDS011;28667;50.758;6.096;2022-07-29T08:40:53;5.25;;;2.40;;
43042;SDS011;28667;50.758;6.096;2022-07-29T08:43:19;4.78;;;2.08;;
43042;SDS011;28667;50.758;6.096;2022-07-29T08:45:46;4.60;;;2.40;;
43042;SDS011;28667;50.758;6.096;2022-07-29T08:48:18;3.67;;;1.95;;
43042;SDS011;28667;50.758;6.096;2022-07-29T08:50:47;6.57;;;2.70;;
43042;SDS011;28667;50.758;6.096;2022-07-29T08:53:15;6.85;;;2.92;;
43042;SDS011;28667;50.758;6.096;2022-07-29T08:55:43;6.05;;;2.45;;
43042;SDS011;28667;50.758;6.096;2022-07-29T08:58:14;5.90;;;2.72;;
43042;SDS011;28667;50.758;6.096;2022-07-29T09:00:41;7.05;;;2.80;;
43042;SDS011;28667;50.758;6.096;2022-07-29T09:03:09;6.80;;;2.92;;
43042;SDS011;28667;50.758;6.096;2022-07-29T09:05:44;7.45;;;2.47;;
43042;SDS011;28667;50.758;6.096;2022-07-29T09:08:12;7.35;;;2.90;;
43042;SDS011;28667;50.758;6.096;2022-07-29T09:10:40;5.47;;;2.75;;
43042;SDS011;28667;50.758;6.096;2022-07-29T09:13:06;5.35;;;2.78;;
43042;SDS011;28667;50.758;6.096;2022-07-29T09:15:32;4.72;;;2.33;;
43042;SDS011;28667;50.758;6.096;2022-07-29T09:17:58;6.40;;;3.03;;
43042;SDS011;28667;50.758;6.096;2022-07-29T09:20:26;5.07;;;2.25;;
43042;SDS011;28667;50.758;6.096;2022-07-29T09:23:12;4.68;;;2.40;;
43042;SDS011;28667;50.758;6.096;2022-07-29T09:25:39;5.93;;;3.13;;
43042;SDS011;28667;50.758;6.096;2022-07-29T09:33:20;4.05;;;2.50;;
43042;SDS011;28667;50.758;6.096;2022-07-29T09:35:58;3.97;;;2.08;;
43042;SDS011;28667;50.758;6.096;2022-07-29T09:38:35;6.50;;;2.42;;
43042;SDS011;28667;50.758;6.096;2022-07-29T09:41:05;7.03;;;2.28;;
43042;SDS011;28667;50.758;6.096;2022-07-29T09:43:34;4.40;;;2.78;;
43042;SDS011;28667;50.758;6.096;2022-07-29T09:46:10;5.68;;;2.33;;
43042;SDS011;28667;50.758;6.096;2022-07-29T09:48:37;3.97;;;2.15;;
43042;SDS011;28667;50.758;6.096;2022-07-29T09:51:03;5.85;;;2.22;;
43042;SDS011;28667;50.758;6.096;2022-07-29T09:53:32;3.97;;;2.03;;
43042;SDS011;28667;50.758;6.096;2022-07-29T09:56:02;3.28;;;1.98;;
43042;SDS011;28667;50.758;6.096;2022-07-29T09:58:30;7.88;;;2.40;;
43042;SDS011;28667;50.758;6.096;2022-07-29T10:00:59;7.82;;;2.95;;
43042;SDS011;28667;50.758;6.096;2022-07-29T10:03:25;11.00;;;2.42;;
43042;SDS011;28667;50.758;6.096;2022-07-29T10:06:07;3.95;;;2.53;;
43042;SDS011;28667;50.758;6.096;2022-07-29T10:08:36;5.93;;;2.90;;
43042;SDS011;28667;50.758;6.096;2022-07-29T10:11:09;10.02;;;4.20;;
43042;SDS011;28667;50.758;6.096;2022-07-29T10:13:37;8.70;;;3.17;;
43042;SDS011;28667;50.758;6.096;2022-07-29T10:16:04;8.73;;;4.80;;
43042;SDS011;28667;50.758;6.096;2022-07-29T10:18:32;8.20;;;4.22;;
43042;SDS011;28667;50.758;6.096;2022-07-29T10:20:59;9.05;;;4.10;;
43042;SDS011;28667;50.758;6.096;2022-07-29T10:23:27;4.55;;;3.70;;
43042;SDS011;28667;50.758;6.096;2022-07-29T10:25:54;6.97;;;3.17;;
43042;SDS011;28667;50.758;6.096;2022-07-29T10:28:21;3.58;;;3.20;;
43042;SDS011;28667;50.758;6.096;2022-07-29T10:30:48;5.60;;;3.63;;
43042;SDS011;28667;50.758;6.096;2022-07-29T10:43:49;5.03;;;3.28;;
43042;SDS011;28667;50.758;6.096;2022-07-29T10:46:17;6.65;;;2.83;;
43042;SDS011;28667;50.758;6.096;2022-07-29T10:51:58;3.85;;;2.60;;
43042;SDS011;28667;50.758;6.096;2022-07-29T10:59:49;3.78;;;2.55;;
43042;SDS011;28667;50.758;6.096;2022-07-29T11:04:59;3.72;;;2.80;;
43042;SDS011;28667;50.758;6.096;2022-07-29T11:07:26;4.10;;;2.50;;
43042;SDS011;28667;50.758;6.096;2022-07-29T11:26:16;5.35;;;3.20;;
43042;SDS011;28667;50.758;6.096;2022-07-29T11:45:01;4.57;;;3.30;;
43042;SDS011;28667;50.758;6.096;2022-07-29T11:47:48;4.50;;;2.92;;
43042;SDS011;28667;50.758;6.096;2022-07-29T11:50:36;6.90;;;3.10;;
43042;SDS011;28667;50.758;6.096;2022-07-29T11:53:03;10.70;;;3.75;;
43042;SDS011;28667;50.758;6.096;2022-07-29T11:55:38;4.82;;;3.72;;
43042;SDS011;28667;50.758;6.096;2022-07-29T11:58:06;7.65;;;3.55;;
43042;SDS011;28667;50.758;6.096;2022-07-29T12:00:39;5.05;;;3.25;;
43042;SDS011;28667;50.758;6.096;2022-07-29T12:03:07;6.53;;;3.53;;
43042;SDS011;28667;50.758;6.096;2022-07-29T12:05:43;5.28;;;2.83;;
43042;SDS011;28667;50.758;6.096;2022-07-29T12:08:12;5.60;;;3.88;;
43042;SDS011;28667;50.758;6.096;2022-07-29T12:10:40;4.55;;;3.65;;
43042;SDS011;28667;50.758;6.096;2022-07-29T12:13:07;6.85;;;3.08;;
43042;SDS011;28667;50.758;6.096;2022-07-29T12:15:34;8.07;;;3.13;;
43042;SDS011;28667;50.758;6.096;2022-07-29T12:18:13;5.25;;;2.92;;
43042;SDS011;28667;50.758;6.096;2022-07-29T12:20:41;4.43;;;2.28;;
43042;SDS011;28667;50.758;6.096;2022-07-29T12:23:08;4.75;;;2.88;;
43042;SDS011;28667;50.758;6.096;2022-07-29T12:25:35;4.13;;;2.33;;
43042;SDS011;28667;50.758;6.096;2022-07-29T12:28:10;4.18;;;2.88;;
43042;SDS011;28667;50.758;6.096;2022-07-29T12:33:14;3.63;;;2.70;;
43042;SDS011;28667;50.758;6.096;2022-07-29T12:35:49;6.22;;;2.95;;
43042;SDS011;28667;50.758;6.096;2022-07-29T12:38:17;6.43;;;3.22;;
43042;SDS011;28667;50.758;6.096;2022-07-29T12:40:45;3.60;;;2.60;;
43042;SDS011;28667;50.758;6.096;2022-07-29T12:43:13;5.10;;;2.30;;
43042;SDS011;28667;50.758;6.096;2022-07-29T12:45:45;2.72;;;2.20;;
43042;SDS011;28667;50.758;6.096;2022-07-29T12:48:13;4.85;;;2.50;;
43042;SDS011;28667;50.758;6.096;2022-07-29T12:50:52;5.82;;;3.13;;
43042;SDS011;28667;50.758;6.096;2022-07-29T12:53:24;3.47;;;2.30;;
43042;SDS011;28667;50.758;6.096;2022-07-29T12:55:52;8.93;;;2.40;;
43042;SDS011;28667;50.758;6.096;2022-07-29T12:58:33;5.40;;;1.90;;
43042;SDS011;28667;50.758;6.096;2022-07-29T13:06:39;2.72;;;2.15;;
43042;SDS011;28667;50.758;6.096;2022-07-29T13:11:43;5.22;;;2.80;;
43042;SDS011;28667;50.758;6.096;2022-07-29T13:17:05;5.60;;;2.80;;
43042;SDS011;28667;50.758;6.096;2022-07-29T13:22:08;4.40;;;2.67;;
43042;SDS011;28667;50.758;6.096;2022-07-29T13:27:18;6.38;;;3.20;;
43042;SDS011;28667;50.758;6.096;2022-07-29T13:29:46;3.17;;;2.28;;
43042;SDS011;28667;50.758;6.096;2022-07-29T13:32:14;4.15;;;2.45;;
43042;SDS011;28667;50.758;6.096;2022-07-29T13:34:40;4.85;;;2.30;;
43042;SDS011;28667;50.758;6.096;2022-07-29T13:37:06;3.58;;;2.50;;
43042;SDS011;28667;50.758;6.096;2022-07-29T13:39:32;3.83;;;2.17;;
43042;SDS011;28667;50.758;6.096;2022-07-29T13:41:58;2.92;;;1.77;;
43042;SDS011;28667;50.758;6.096;2022-07-29T13:44:24;4.07;;;2.20;;
43042;SDS011;28667;50.758;6.096;2022-07-29T13:46:51;3.28;;;2.33;;
43042;SDS011;28667;50.758;6.096;2022-07-29T13:49:16;3.80;;;1.92;;
43042;SDS011;28667;50.758;6.096;2022-07-29T13:51:43;2.22;;;1.70;;
43042;SDS011;28667;50.758;6.096;2022-07-29T13:54:08;1.98;;;1.70;;
43042;SDS011;28667;50.758;6.096;2022-07-29T13:56:35;2.58;;;1.95;;
43042;SDS011;28667;50.758;6.096;2022-07-29T13:59:01;1.92;;;1.52;;
43042;SDS011;28667;50.758;6.096;2022-07-29T14:01:27;3.78;;;1.88;;
43042;SDS011;28667;50.758;6.096;2022-07-29T14:03:55;2.35;;;1.65;;
43042;SDS011;28667;50.758;6.096;2022-07-29T14:06:21;2.13;;;1.40;;
43042;SDS011;28667;50.758;6.096;2022-07-29T14:08:48;2.85;;;1.65;;
43042;SDS011;28667;50.758;6.096;2022-07-29T14:11:14;2.40;;;1.60;;
43042;SDS011;28667;50.758;6.096;2022-07-29T14:13:40;3.10;;;1.40;;
43042;SDS011;28667;50.758;6.096;2022-07-29T14:16:06;3.90;;;1.42;;
43042;SDS011;28667;50.758;6.096;2022-07-29T14:18:33;2.22;;;1.70;;
43042;SDS011;28667;50.758;6.096;2022-07-29T14:20:59;1.92;;;1.30;;
43042;SDS011;28667;50.758;6.096;2022-07-29T14:23:25;2.85;;;1.50;;
43042;SDS011;28667;50.758;6.096;2022-07-29T14:25:51;2.03;;;1.50;;
43042;SDS011;28667;50.758;6.096;2022-07-29T14:28:17;3.38;;;1.67;;
43042;SDS011;28667;50.758;6.096;2022-07-29T14:30:43;3.72;;;1.50;;
43042;SDS011;28667;50.758;6.096;2022-07-29T14:33:09;3.53;;;1.67;;
43042;SDS011;28667;50.758;6.096;2022-07-29T14:35:35;2.17;;;1.83;;
43042;SDS011;28667;50.758;6.096;2022-07-29T14:38:02;1.85;;;1.35;;
43042;SDS011;28667;50.758;6.096;2022-07-29T14:40:28;1.85;;;1.67;;
43042;SDS011;28667;50.758;6.096;2022-07-29T14:42:55;2.58;;;2.05;;
43042;SDS011;28667;50.758;6.096;2022-07-29T14:45:20;2.28;;;1.70;;
43042;SDS011;28667;50.758;6.096;2022-07-29T14:47:48;3.65;;;2.30;;
43042;SDS011;28667;50.758;6.096;2022-07-29T14:50:16;2.42;;;2.05;;
43042;SDS011;28667;50.758;6.096;2022-07-29T14:52:42;3.13;;;1.83;;
43042;SDS011;28667;50.758;6.096;2022-07-29T14:55:08;2.60;;;2.08;;
43042;SDS011;28667;50.758;6.096;2022-07-29T14:57:34;2.20;;;1.90;;
43042;SDS011;28667;50.758;6.096;2022-07-29T15:00:01;2.53;;;1.48;;
43042;SDS011;28667;50.758;6.096;2022-07-29T15:02:28;4.25;;;1.80;;
43042;SDS011;28667;50.758;6.096;2022-07-29T15:04:54;1.95;;;1.67;;
43042;SDS011;28667;50.758;6.096;2022-07-29T15:07:20;4.90;;;1.95;;
43042;SDS011;28667;50.758;6.096;2022-07-29T15:09:47;2.33;;;1.75;;
43042;SDS011;28667;50.758;6.096;2022-07-29T15:12:13;4.80;;;2.08;;
43042;SDS011;28667;50.758;6.096;2022-07-29T15:14:39;1.70;;;1.60;;
43042;SDS011;28667;50.758;6.096;2022-07-29T15:17:05;2.10;;;2.00;;
43042;SDS011;28667;50.758;6.096;2022-07-29T15:19:32;2.47;;;2.28;;
43042;SDS011;28667;50.758;6.096;2022-07-29T15:21:58;2.65;;;1.80;;
43042;SDS011;28667;50.758;6.096;2022-07-29T15:24:24;4.30;;;1.90;;
43042;SDS011;28667;50.758;6.096;2022-07-29T15:26:51;2.90;;;1.83;;
43042;SDS011;28667;50.758;6.096;2022-07-29T15:29:17;4.03;;;2.40;;
43042;SDS011;28667;50.758;6.096;2022-07-29T15:31:43;1.77;;;1.67;;
43042;SDS011;28667;50.758;6.096;2022-07-29T15:34:10;3.97;;;2.10;;
43042;SDS011;28667;50.758;6.096;2022-07-29T15:36:36;4.20;;;1.98;;
43042;SDS011;28667;50.758;6.096;2022-07-29T15:39:02;3.85;;;2.17;;
43042;SDS011;28667;50.758;6.096;2022-07-29T15:41:28;2.00;;;1.83;;
43042;SDS011;28667;50.758;6.096;2022-07-29T15:43:54;2.55;;;1.65;;
43042;SDS011;28667;50.758;6.096;2022-07-29T15:46:20;2.53;;;2.00;;
43042;SDS011;28667;50.758;6.096;2022-07-29T15:49:06;3.95;;;1.70;;
43042;SDS011;28667;50.758;6.096;2022-07-29T15:51:33;3.90;;;1.98;;
43042;SDS011;28667;50.758;6.096;2022-07-29T15:54:02;3.88;;;2.40;;
43042;SDS011;28667;50.758;6.096;2022-07-29T15:56:29;2.35;;;2.13;;
43042;SDS011;28667;50.758;6.096;2022-07-29T15:58:56;3.47;;;2.25;;
43042;SDS011;28667;50.758;6.096;2022-07-29T16:01:23;2.60;;;1.90;;
43042;SDS011;28667;50.758;6.096;2022-07-29T16:03:49;3.47;;;2.17;;
43042;SDS011;28667;50.758;6.096;2022-07-29T16:06:16;2.17;;;1.70;;
43042;SDS011;28667;50.758;6.096;2022-07-29T16:08:42;3.38;;;2.05;;
43042;SDS011;28667;50.758;6.096;2022-07-29T16:11:08;3.28;;;1.90;;
43042;SDS011;28667;50.758;6.096;2022-07-29T16:13:34;4.22;;;2.53;;
43042;SDS011;28667;50.758;6.096;2022-07-29T16:16:01;3.30;;;2.30;;
43042;SDS011;28667;50.758;6.096;2022-07-29T16:18:27;4.57;;;2.40;;
43042;SDS011;28667;50.758;6.096;2022-07-29T16:20:53;4.50;;;2.53;;
43042;SDS011;28667;50.758;6.096;2022-07-29T16:23:19;3.72;;;2.38;;
43042;SDS011;28667;50.758;6.096;2022-07-29T16:25:45;2.40;;;2.10;;
43042;SDS011;28667;50.758;6.096;2022-07-29T16:28:11;5.80;;;2.13;;
43042;SDS011;28667;50.758;6.096;2022-07-29T16:30:37;5.13;;;2.45;;